Time;durP1;ratioP1;P1;durP2;ratioP2;P2;SDS_P1;SDS_P2;PMS_P1;PMS_P2;Temp;Humidity;BMP_temperature;BMP_pressure;BME280_temperature;BME280_humidity;BME280_pressure;Samples;Min_cycle;Max_cycle;Signal;HPM_P1;HPM_P2
2022/01/05 00:01:19;;;;;;;3.05;1.30;;;27.90;50.60;;;;;;5025018;28;20308;-41
2022/01/05 00:03:49;;;;;;;2.38;1.10;;;27.90;50.50;;;;;;5024574;28;20239;-44
2022/01/05 00:06:20;;;;;;;1.73;1.00;;;28.00;50.40;;;;;;5027969;28;20327;-38
2022/01/05 00:08:50;;;;;;;2.42;1.08;;;28.00;50.30;;;;;;5027421;28;20200;-38
2022/01/05 00:11:23;;;;;;;1.70;1.30;;;28.00;50.30;;;;;;5025860;28;20307;-50
2022/01/05 00:13:55;;;;;;;2.33;1.40;;;28.10;50.40;;;;;;5025018;28;20196;-49
2022/01/05 00:16:26;;;;;;;1.98;1.40;;;28.10;50.40;;;;;;5026292;28;20686;-47
2022/01/05 00:18:56;;;;;;;2.50;1.17;;;28.20;50.50;;;;;;5023225;28;20275;-43
2022/01/05 00:21:27;;;;;;;2.70;1.50;;;28.10;50.30;;;;;;5011329;28;20304;-38
2022/01/05 00:23:57;;;;;;;2.58;1.38;;;28.20;50.10;;;;;;5008092;28;20240;-42
2022/01/05 00:26:30;;;;;;;3.70;1.50;;;28.20;49.70;;;;;;4995587;28;20303;-37
2022/01/05 00:29:00;;;;;;;2.17;1.50;;;28.20;49.40;;;;;;5009910;28;20283;-41
2022/01/05 00:31:31;;;;;;;2.95;1.60;;;28.20;49.50;;;;;;5011414;28;20308;-39
2022/01/05 00:34:02;;;;;;;3.85;1.80;;;28.20;49.80;;;;;;5007875;28;20291;-38
2022/01/05 00:36:32;;;;;;;3.55;1.45;;;28.20;50.00;;;;;;5009421;28;20295;-47
2022/01/05 00:39:03;;;;;;;4.93;1.80;;;28.20;50.10;;;;;;5009127;28;20688;-47
2022/01/05 00:41:35;;;;;;;3.13;1.60;;;28.20;50.10;;;;;;5007958;28;20311;-46
2022/01/05 00:44:05;;;;;;;3.15;1.75;;;28.30;50.30;;;;;;5008559;28;20291;-48
2022/01/05 00:46:36;;;;;;;4.25;2.08;;;28.30;50.30;;;;;;5006297;28;20312;-38
2022/01/05 00:49:06;;;;;;;2.38;1.75;;;28.30;50.30;;;;;;4994339;28;20284;-52
2022/01/05 00:51:38;;;;;;;3.15;2.08;;;28.30;50.40;;;;;;5011088;28;20745;-51
2022/01/05 00:54:08;;;;;;;4.20;1.65;;;28.40;50.50;;;;;;5009694;28;20260;-45
2022/01/05 00:56:41;;;;;;;3.67;1.83;;;28.40;50.50;;;;;;5008041;28;20247;-54
2022/01/05 00:59:11;;;;;;;2.20;1.80;;;28.40;50.40;;;;;;5007734;28;20288;-54
2022/01/05 01:01:42;;;;;;;3.15;1.52;;;28.40;50.40;;;;;;5009418;28;20220;-49
2022/01/05 01:04:12;;;;;;;4.32;1.77;;;28.40;50.40;;;;;;5008150;28;20296;-44
2022/01/05 01:06:43;;;;;;;4.32;2.00;;;28.40;50.40;;;;;;5008114;28;20216;-48
2022/01/05 01:09:14;;;;;;;2.88;1.85;;;28.50;50.30;;;;;;5007782;28;20204;-42
2022/01/05 01:11:47;;;;;;;4.00;1.80;;;28.50;50.40;;;;;;4998376;28;20229;-40
2022/01/05 01:14:17;;;;;;;2.05;1.50;;;28.50;50.40;;;;;;5009582;28;20663;-45
2022/01/05 01:16:47;;;;;;;2.35;1.55;;;28.50;50.40;;;;;;5008432;28;20233;-51
2022/01/05 01:19:18;;;;;;;2.30;1.70;;;28.50;50.50;;;;;;5006895;28;20292;-50
2022/01/05 01:21:48;;;;;;;2.20;1.60;;;28.60;50.60;;;;;;4996036;28;20683;-47
2022/01/05 01:24:19;;;;;;;2.58;1.55;;;28.60;50.60;;;;;;4995052;28;20284;-56
2022/01/05 01:26:51;;;;;;;3.17;1.77;;;28.60;50.60;;;;;;5002429;28;20282;-44
2022/01/05 01:29:22;;;;;;;1.85;1.65;;;28.60;50.60;;;;;;5007841;28;20636;-49
2022/01/05 01:31:52;;;;;;;1.67;1.52;;;28.70;50.60;;;;;;5007597;28;20317;-48
2022/01/05 01:34:23;;;;;;;2.30;1.60;;;28.60;50.50;;;;;;5010063;28;20700;-51
2022/01/05 01:36:53;;;;;;;1.80;1.50;;;28.70;50.60;;;;;;4991923;28;20665;-45
2022/01/05 01:39:24;;;;;;;1.75;1.60;;;28.70;50.50;;;;;;5007771;28;20600;-46
2022/01/05 01:41:56;;;;;;;2.35;1.65;;;28.70;50.40;;;;;;5008509;28;20282;-47
2022/01/05 01:44:27;;;;;;;3.97;1.75;;;28.80;50.40;;;;;;4996458;28;20288;-47
2022/01/05 01:46:57;;;;;;;1.88;1.40;;;28.80;50.30;;;;;;5007547;28;20221;-49
2022/01/05 01:49:28;;;;;;;3.25;1.58;;;28.80;50.40;;;;;;5011576;28;20283;-42
2022/01/05 01:51:58;;;;;;;2.85;1.95;;;28.80;50.30;;;;;;5009318;28;20276;-44
2022/01/05 01:54:29;;;;;;;3.85;1.88;;;28.80;50.30;;;;;;4998979;28;20512;-49
2022/01/05 01:57:03;;;;;;;2.53;1.33;;;28.80;50.10;;;;;;5012657;28;20684;-39
2022/01/05 01:59:34;;;;;;;2.58;1.65;;;28.90;50.20;;;;;;4995695;28;20216;-47
2022/01/05 02:02:08;;;;;;;1.80;1.42;;;28.80;50.10;;;;;;5012708;28;20217;-38
2022/01/05 02:04:39;;;;;;;1.63;1.33;;;28.90;50.10;;;;;;5010676;28;20196;-49
2022/01/05 02:07:10;;;;;;;2.38;1.48;;;28.80;50.20;;;;;;5010980;28;20298;-45
2022/01/05 02:09:42;;;;;;;1.55;1.42;;;28.90;50.30;;;;;;5012503;28;20201;-42
2022/01/05 02:12:15;;;;;;;2.65;1.40;;;28.90;50.30;;;;;;5011560;28;20220;-46
2022/01/05 02:14:49;;;;;;;2.75;1.45;;;28.90;50.40;;;;;;5006489;28;20201;-44
2022/01/05 02:17:24;;;;;;;2.00;1.48;;;28.90;50.40;;;;;;5000681;28;20201;-45
2022/01/05 02:19:54;;;;;;;2.30;1.42;;;29.00;50.30;;;;;;5011356;28;20218;-39
2022/01/05 02:22:29;;;;;;;1.58;1.40;;;29.00;50.30;;;;;;5012355;28;20224;-44
2022/01/05 02:25:00;;;;;;;2.13;1.33;;;29.00;50.90;;;;;;4995408;28;20197;-49
2022/01/05 02:27:30;;;;;;;2.10;1.50;;;29.00;50.30;;;;;;4995455;28;20690;-49
2022/01/05 02:30:01;;;;;;;1.95;1.40;;;29.00;50.30;;;;;;4996887;28;20663;-47
2022/01/05 02:32:32;;;;;;;2.28;1.40;;;29.10;50.30;;;;;;5012167;28;20575;-46
2022/01/05 02:35:02;;;;;;;1.90;1.70;;;29.10;50.30;;;;;;5010758;28;20201;-44
2022/01/05 02:37:41;;;;;;;1.48;1.30;;;29.00;50.20;;;;;;5012171;28;20200;-41
2022/01/05 02:40:13;;;;;;;1.48;1.30;;;29.10;50.10;;;;;;5010887;28;20227;-50
2022/01/05 02:42:44;;;;;;;1.27;1.17;;;29.10;50.10;;;;;;5010820;28;20304;-43
2022/01/05 02:45:16;;;;;;;1.60;1.48;;;29.10;50.00;;;;;;5010916;28;20201;-41
2022/01/05 02:47:46;;;;;;;2.20;1.30;;;29.10;50.00;;;;;;4996096;28;20216;-52
2022/01/05 02:50:17;;;;;;;4.50;1.40;;;29.10;50.00;;;;;;5012231;28;20276;-52
2022/01/05 02:52:50;;;;;;;2.47;1.40;;;29.20;50.00;;;;;;5011093;28;20290;-53
2022/01/05 02:55:21;;;;;;;3.67;1.10;;;29.20;50.00;;;;;;5011929;28;20204;-40
2022/01/05 02:57:52;;;;;;;2.30;1.13;;;29.20;49.90;;;;;;5008385;28;20197;-49
2022/01/05 03:00:23;;;;;;;1.73;1.30;;;29.20;49.80;;;;;;5003302;28;20233;-48
2022/01/05 03:02:53;;;;;;;1.95;1.20;;;29.20;49.80;;;;;;5003050;28;20225;-41
2022/01/05 03:05:24;;;;;;;2.33;1.33;;;29.20;49.90;;;;;;5009938;28;20208;-44
2022/01/05 03:07:57;;;;;;;2.88;1.50;;;29.20;49.80;;;;;;5012503;28;20229;-38
2022/01/05 03:10:28;;;;;;;3.60;1.40;;;29.20;49.90;;;;;;4997039;28;20199;-47
2022/01/05 03:12:58;;;;;;;1.25;1.15;;;29.20;49.80;;;;;;5011653;28;20197;-42
2022/01/05 03:15:29;;;;;;;1.33;1.23;;;29.30;49.90;;;;;;5009891;28;20251;-49
2022/01/05 03:18:00;;;;;;;1.48;1.20;;;29.30;49.80;;;;;;5009661;28;20212;-47
2022/01/05 03:20:31;;;;;;;2.05;1.27;;;29.30;49.90;;;;;;5008999;28;20197;-48
2022/01/05 03:23:04;;;;;;;1.30;1.20;;;29.30;49.90;;;;;;5009858;28;20673;-52
2022/01/05 03:25:35;;;;;;;1.13;1.10;;;29.30;49.80;;;;;;5009461;28;20197;-51
2022/01/05 03:28:05;;;;;;;1.67;1.08;;;29.40;49.80;;;;;;5007193;28;20268;-46
2022/01/05 03:30:36;;;;;;;1.88;1.30;;;29.40;49.90;;;;;;5022002;28;20676;-39
2022/01/05 03:33:15;;;;;;;1.45;1.10;;;29.40;49.90;;;;;;5025312;28;20205;-42
2022/01/05 03:35:47;;;;;;;2.08;1.20;;;29.40;50.00;;;;;;5027195;28;20282;-58
2022/01/05 03:38:20;;;;;;;1.23;1.10;;;29.40;49.80;;;;;;5026269;28;20227;-57
2022/01/05 03:40:51;;;;;;;1.83;1.40;;;29.50;50.00;;;;;;5026215;28;20239;-59
2022/01/05 03:43:22;;;;;;;1.15;1.05;;;29.40;50.00;;;;;;5024672;28;20200;-48
2022/01/05 03:45:52;;;;;;;1.20;1.10;;;29.40;49.90;;;;;;5026774;28;20279;-56
2022/01/05 03:48:23;;;;;;;1.20;1.10;;;29.50;49.90;;;;;;5020726;28;20196;-57
2022/01/05 03:50:54;;;;;;;2.08;1.02;;;29.50;49.90;;;;;;5024663;28;20220;-47
2022/01/05 03:53:26;;;;;;;2.10;1.30;;;29.40;49.60;;;;;;5025902;28;20231;-44
2022/01/05 03:55:57;;;;;;;1.25;1.00;;;29.50;49.60;;;;;;5027013;28;20650;-47
2022/01/05 03:58:27;;;;;;;1.40;1.10;;;29.50;49.60;;;;;;5027743;28;20289;-47
2022/01/05 04:00:58;;;;;;;1.35;1.10;;;29.50;49.60;;;;;;5024718;28;20301;-55
2022/01/05 04:03:28;;;;;;;1.45;0.98;;;29.50;49.60;;;;;;5023814;28;20459;-45
2022/01/05 04:05:59;;;;;;;1.77;1.10;;;29.50;49.50;;;;;;5024843;28;20291;-58
2022/01/05 04:08:31;;;;;;;2.72;1.25;;;29.50;49.50;;;;;;5025691;28;20279;-57
2022/01/05 04:11:01;;;;;;;1.60;1.15;;;29.50;49.40;;;;;;5026614;28;20295;-48
2022/01/05 04:13:32;;;;;;;1.25;1.15;;;29.60;49.50;;;;;;5025343;28;20295;-54
2022/01/05 04:16:03;;;;;;;1.50;1.00;;;29.50;49.40;;;;;;5025289;28;20279;-47
2022/01/05 04:18:33;;;;;;;2.25;1.20;;;29.60;49.60;;;;;;5027738;28;20228;-56
2022/01/05 04:21:04;;;;;;;2.10;1.25;;;29.60;49.40;;;;;;5027389;28;20298;-38
2022/01/05 04:23:36;;;;;;;1.33;1.05;;;29.60;49.40;;;;;;5026030;28;20287;-48
2022/01/05 04:26:07;;;;;;;1.23;1.02;;;29.60;49.40;;;;;;5025150;28;20283;-44
2022/01/05 04:28:37;;;;;;;1.42;1.20;;;29.60;49.30;;;;;;5024134;28;20279;-44
2022/01/05 04:31:08;;;;;;;1.77;1.00;;;29.60;49.30;;;;;;5024120;28;20270;-38
2022/01/05 04:33:38;;;;;;;1.42;1.00;;;29.60;49.30;;;;;;5023332;28;20360;-56
2022/01/05 04:36:10;;;;;;;1.27;1.02;;;29.60;49.20;;;;;;5024769;28;20228;-48
2022/01/05 04:38:42;;;;;;;1.40;1.30;;;29.60;49.20;;;;;;5023345;28;20292;-55
2022/01/05 04:41:13;;;;;;;2.65;1.30;;;29.70;49.20;;;;;;5026106;28;20311;-48
2022/01/05 04:43:43;;;;;;;1.83;1.23;;;29.70;49.10;;;;;;5026440;28;20562;-56
2022/01/05 04:46:14;;;;;;;1.42;1.20;;;29.60;49.00;;;;;;5026912;28;20328;-48
2022/01/05 04:48:44;;;;;;;1.50;1.30;;;29.70;49.10;;;;;;5023292;28;20286;-57
2022/01/05 04:51:14;;;;;;;1.90;1.30;;;29.70;49.10;;;;;;5023609;28;20256;-57
2022/01/05 04:53:47;;;;;;;1.48;1.10;;;29.70;49.10;;;;;;5022777;28;20214;-59
2022/01/05 04:56:17;;;;;;;1.98;1.35;;;29.70;49.00;;;;;;5023928;28;20208;-57
2022/01/05 04:58:48;;;;;;;2.13;1.60;;;29.70;48.90;;;;;;5022668;28;20291;-40
2022/01/05 05:01:18;;;;;;;1.70;1.25;;;29.70;48.90;;;;;;5024539;28;20215;-45
2022/01/05 05:03:48;;;;;;;2.33;1.20;;;29.70;48.90;;;;;;5025672;28;20279;-59
2022/01/05 05:06:19;;;;;;;2.33;1.33;;;29.70;48.90;;;;;;5026918;28;20256;-38
2022/01/05 05:08:51;;;;;;;1.33;1.20;;;29.70;49.00;;;;;;5023946;28;20287;-38
2022/01/05 05:11:22;;;;;;;2.40;1.55;;;29.70;49.00;;;;;;5023911;28;20327;-41
2022/01/05 05:13:52;;;;;;;2.50;1.33;;;29.70;48.80;;;;;;5023419;28;20218;-48
2022/01/05 05:16:23;;;;;;;2.90;1.23;;;29.70;48.80;;;;;;5025028;28;20895;-39
2022/01/05 05:18:53;;;;;;;1.52;1.42;;;29.70;48.80;;;;;;5012952;28;20284;-48
2022/01/05 05:21:24;;;;;;;1.67;1.48;;;29.70;48.80;;;;;;5009942;28;20300;-41
2022/01/05 05:23:56;;;;;;;2.00;1.70;;;29.70;48.70;;;;;;5007273;28;20741;-50
2022/01/05 05:26:26;;;;;;;1.65;1.45;;;29.80;48.60;;;;;;4993118;28;20231;-59
2022/01/05 05:28:57;;;;;;;4.10;3.17;;;29.70;48.40;;;;;;5008057;28;20634;-59
2022/01/05 05:31:27;;;;;;;3.30;2.13;;;29.70;48.40;;;;;;5008527;28;20304;-56
2022/01/05 05:33:58;;;;;;;2.42;2.22;;;29.70;48.40;;;;;;5008152;28;20284;-60
2022/01/05 05:36:28;;;;;;;2.30;1.95;;;29.70;48.30;;;;;;5008932;28;20645;-59
2022/01/05 05:39:01;;;;;;;1.95;1.80;;;29.70;48.40;;;;;;5007221;28;20283;-59
2022/01/05 05:41:31;;;;;;;2.50;2.20;;;29.70;48.40;;;;;;5008396;28;20299;-53
2022/01/05 05:44:01;;;;;;;2.05;1.85;;;29.70;48.50;;;;;;5007540;28;20232;-58
2022/01/05 05:46:32;;;;;;;2.25;2.00;;;29.70;48.50;;;;;;5007759;28;20775;-57
2022/01/05 05:49:02;;;;;;;3.42;1.90;;;29.70;48.50;;;;;;5003806;28;20284;-60
2022/01/05 05:51:33;;;;;;;2.22;2.03;;;29.70;48.50;;;;;;5007964;28;20303;-60
2022/01/05 05:54:06;;;;;;;2.47;1.70;;;29.70;48.50;;;;;;5007417;28;20209;-60
2022/01/05 05:56:36;;;;;;;2.17;1.83;;;29.70;48.50;;;;;;5000995;28;20890;-56
2022/01/05 05:59:07;;;;;;;1.95;1.75;;;29.70;48.50;;;;;;5007567;28;20640;-56
2022/01/05 06:01:37;;;;;;;2.33;1.80;;;29.70;48.50;;;;;;5007400;28;20300;-60
2022/01/05 06:04:08;;;;;;;2.42;2.08;;;29.80;48.60;;;;;;5005487;28;20292;-53
2022/01/05 06:06:38;;;;;;;2.97;1.92;;;29.70;48.50;;;;;;4995592;28;20339;-60
2022/01/05 06:09:10;;;;;;;2.50;1.70;;;29.70;48.50;;;;;;5008903;28;20280;-54
2022/01/05 06:11:41;;;;;;;2.53;1.70;;;29.70;48.50;;;;;;5009951;28;20303;-60
2022/01/05 06:14:11;;;;;;;2.60;2.00;;;29.70;48.50;;;;;;5007853;28;20686;-59
2022/01/05 06:16:43;;;;;;;2.42;1.88;;;29.70;48.50;;;;;;5006653;28;20633;-54
2022/01/05 06:19:13;;;;;;;2.10;1.90;;;29.70;48.50;;;;;;5005015;28;20201;-58
2022/01/05 06:21:44;;;;;;;3.20;2.03;;;29.70;48.40;;;;;;5007155;28;20323;-60
2022/01/05 06:24:17;;;;;;;3.15;1.92;;;29.70;48.40;;;;;;5007725;28;20208;-57
2022/01/05 06:26:48;;;;;;;1.95;1.80;;;29.80;48.40;;;;;;5007232;28;20284;-60
2022/01/05 06:29:18;;;;;;;2.22;2.03;;;29.70;48.40;;;;;;5008957;28;20211;-60
2022/01/05 06:31:49;;;;;;;2.78;1.95;;;29.70;48.40;;;;;;5009111;28;20304;-59
2022/01/05 06:34:19;;;;;;;1.90;1.77;;;29.70;48.40;;;;;;5013497;28;20288;-56
2022/01/05 06:36:49;;;;;;;1.75;1.65;;;29.80;48.40;;;;;;5012252;28;20284;-60
2022/01/05 06:39:22;;;;;;;1.92;1.67;;;29.70;48.30;;;;;;5009948;28;20287;-63
2022/01/05 06:41:52;;;;;;;1.85;1.63;;;29.70;48.40;;;;;;5010814;28;20315;-60
2022/01/05 06:44:23;;;;;;;1.95;1.77;;;29.70;48.40;;;;;;5012206;28;20288;-60
2022/01/05 06:46:53;;;;;;;2.72;1.88;;;29.80;48.40;;;;;;5010707;28;20284;-60
2022/01/05 06:49:23;;;;;;;2.13;1.80;;;29.70;48.30;;;;;;5011293;28;20716;-48
2022/01/05 06:51:54;;;;;;;3.17;1.63;;;29.70;48.20;;;;;;5011540;28;20300;-48
2022/01/05 06:54:26;;;;;;;1.92;1.70;;;29.70;48.30;;;;;;5008915;28;20296;-48
2022/01/05 06:56:57;;;;;;;2.10;1.70;;;29.70;48.30;;;;;;5012094;28;20283;-53
2022/01/05 06:59:27;;;;;;;1.98;1.70;;;29.70;48.40;;;;;;5011025;28;20737;-50
2022/01/05 07:01:58;;;;;;;2.25;1.70;;;29.70;48.40;;;;;;5011724;28;20312;-50
2022/01/05 07:04:28;;;;;;;1.50;1.40;;;29.70;48.40;;;;;;5010532;28;20291;-51
2022/01/05 07:06:58;;;;;;;2.15;1.80;;;29.70;48.40;;;;;;5011703;28;20280;-52
2022/01/05 07:09:31;;;;;;;1.65;1.55;;;29.80;48.40;;;;;;5011874;28;20280;-58
2022/01/05 07:12:01;;;;;;;1.92;1.55;;;29.70;48.40;;;;;;5011695;28;20795;-60
2022/01/05 07:14:32;;;;;;;1.90;1.80;;;29.70;48.40;;;;;;5011539;28;20200;-60
2022/01/05 07:17:03;;;;;;;2.10;1.90;;;29.70;48.40;;;;;;5012407;28;20315;-53
2022/01/05 07:19:34;;;;;;;1.90;1.80;;;29.70;48.40;;;;;;5012828;28;20287;-60
2022/01/05 07:22:05;;;;;;;1.77;1.60;;;29.70;48.40;;;;;;5011086;28;20316;-53
2022/01/05 07:24:37;;;;;;;1.80;1.70;;;29.70;48.40;;;;;;5009991;28;20348;-60
2022/01/05 07:27:09;;;;;;;1.70;1.60;;;29.60;48.40;;;;;;5010791;28;20311;-58
2022/01/05 07:29:40;;;;;;;2.97;2.00;;;29.60;48.40;;;;;;5009015;28;20206;-61
2022/01/05 07:32:11;;;;;;;2.13;1.92;;;29.60;48.50;;;;;;5011123;28;20305;-51
2022/01/05 07:37:31;;;;;;;1.67;1.58;;;29.60;48.60;;;;;;4994755;28;20278;-59
2022/01/05 07:40:03;;;;;;;1.88;1.52;;;29.60;48.60;;;;;;5009408;28;20284;-60
2022/01/05 07:42:35;;;;;;;1.60;1.50;;;29.50;48.50;;;;;;5008516;28;20228;-56
2022/01/05 07:45:07;;;;;;;2.03;1.83;;;29.50;48.60;;;;;;5011355;28;20197;-60
2022/01/05 07:47:37;;;;;;;1.80;1.65;;;29.40;48.60;;;;;;5010058;28;20308;-61
2022/01/05 07:50:14;;;;;;;1.60;1.50;;;29.40;48.60;;;;;;5008293;28;20732;-57
2022/01/05 07:52:46;;;;;;;1.70;1.60;;;29.40;48.70;;;;;;5008739;28;20224;-55
2022/01/05 07:55:18;;;;;;;1.90;1.67;;;29.40;48.70;;;;;;5010508;28;20571;-61
2022/01/05 07:57:49;;;;;;;2.33;1.95;;;29.40;48.80;;;;;;5004502;28;20306;-61
2022/01/05 08:00:20;;;;;;;2.38;1.95;;;29.30;48.70;;;;;;5001284;28;20651;-47
2022/01/05 08:02:50;;;;;;;5.30;2.08;;;29.20;48.30;;;;;;5009272;28;20307;-61
2022/01/05 08:05:21;;;;;;;2.13;1.77;;;29.20;48.20;;;;;;5006913;28;20275;-60
2022/01/05 08:07:51;;;;;;;3.40;2.20;;;29.10;48.30;;;;;;5010888;28;20815;-54
2022/01/05 08:10:23;;;;;;;2.20;1.70;;;29.10;48.40;;;;;;4998320;28;20287;-55
2022/01/05 08:12:54;;;;;;;3.05;2.00;;;29.10;48.40;;;;;;5008521;28;20284;-61
2022/01/05 08:15:25;;;;;;;3.03;1.70;;;29.10;48.50;;;;;;5010139;28;20284;-61
2022/01/05 08:17:55;;;;;;;4.70;1.77;;;29.00;48.40;;;;;;5010218;28;20283;-61
2022/01/05 08:20:25;;;;;;;2.85;1.83;;;29.00;48.50;;;;;;5009728;28;20288;-61
2022/01/05 08:22:56;;;;;;;4.10;2.13;;;29.00;48.60;;;;;;5010030;28;20312;-58
2022/01/05 08:25:28;;;;;;;3.15;2.20;;;28.90;48.60;;;;;;5008954;28;20287;-59
2022/01/05 08:27:59;;;;;;;3.35;2.05;;;28.90;48.60;;;;;;4994252;28;20295;-54
2022/01/05 08:30:33;;;;;;;2.80;1.95;;;28.90;48.70;;;;;;5010297;28;20360;-61
2022/01/05 08:33:04;;;;;;;2.08;1.88;;;28.90;48.70;;;;;;5009362;28;20199;-61
2022/01/05 08:35:36;;;;;;;2.75;1.80;;;28.80;48.70;;;;;;5008688;28;20212;-61
2022/01/05 08:38:07;;;;;;;2.03;1.80;;;28.80;48.80;;;;;;5010140;28;20291;-61
2022/01/05 08:40:40;;;;;;;1.90;1.73;;;28.70;48.80;;;;;;5005303;28;20775;-61
2022/01/05 08:43:11;;;;;;;2.17;1.88;;;28.70;48.90;;;;;;4998507;28;20296;-62
2022/01/05 08:45:43;;;;;;;3.17;2.00;;;28.70;48.90;;;;;;4996794;28;20284;-61
2022/01/05 08:48:14;;;;;;;2.47;1.73;;;28.60;48.90;;;;;;4996470;28;20304;-62
2022/01/05 08:50:45;;;;;;;2.70;2.00;;;28.60;48.90;;;;;;5007844;28;20295;-55
2022/01/05 08:53:15;;;;;;;2.10;1.90;;;28.60;48.90;;;;;;5009324;28;20310;-61
2022/01/05 08:55:50;;;;;;;2.45;2.00;;;28.50;49.60;;;;;;5007703;28;20287;-49
2022/01/05 08:58:21;;;;;;;2.90;1.92;;;28.50;49.00;;;;;;5007998;28;20287;-61
2022/01/05 09:00:52;;;;;;;1.92;1.73;;;28.50;49.10;;;;;;5008270;28;20279;-61
2022/01/05 09:03:23;;;;;;;2.15;1.70;;;28.50;49.10;;;;;;5009389;28;20976;-57
2022/01/05 09:05:54;;;;;;;2.10;1.95;;;28.40;49.10;;;;;;5000636;28;20198;-58
2022/01/05 09:08:24;;;;;;;2.25;1.90;;;28.40;49.20;;;;;;5002411;28;20300;-52
2022/01/05 09:10:57;;;;;;;2.10;1.90;;;28.40;49.20;;;;;;5009244;28;20429;-60
2022/01/05 09:13:27;;;;;;;3.30;2.10;;;28.40;49.10;;;;;;5009676;28;20673;-39
2022/01/05 09:15:58;;;;;;;2.05;1.70;;;28.30;49.20;;;;;;5006964;28;20236;-54
2022/01/05 09:18:29;;;;;;;2.15;1.75;;;28.30;49.20;;;;;;5021076;28;20795;-54
2022/01/05 09:20:59;;;;;;;1.90;1.80;;;28.30;49.30;;;;;;5025889;28;20266;-55
2022/01/05 09:23:30;;;;;;;2.45;1.95;;;28.20;49.20;;;;;;5024663;28;20283;-56
2022/01/05 09:26:02;;;;;;;2.15;1.90;;;28.20;49.30;;;;;;5024141;28;20282;-56
2022/01/05 09:28:33;;;;;;;1.80;1.70;;;28.10;49.30;;;;;;5024919;28;20216;-54
2022/01/05 09:31:03;;;;;;;2.00;1.80;;;28.10;49.40;;;;;;5024354;28;20314;-58
2022/01/05 09:33:34;;;;;;;2.08;1.88;;;28.00;49.30;;;;;;5023881;28;20246;-61
2022/01/05 09:36:10;;;;;;;2.03;1.83;;;28.00;49.50;;;;;;5025689;28;20380;-53
2022/01/05 09:44:14;;;;;;;2.70;1.75;;;27.90;49.50;;;;;;5023139;28;20195;-51
2022/01/05 09:46:57;;;;;;;1.85;1.60;;;27.90;49.50;;;;;;5025760;28;20283;-56
2022/01/05 09:49:34;;;;;;;2.22;2.03;;;27.90;49.50;;;;;;5023377;28;20231;-60
2022/01/05 09:52:08;;;;;;;2.42;1.90;;;27.90;49.60;;;;;;5021362;28;20312;-60
2022/01/05 09:54:42;;;;;;;1.70;1.60;;;27.80;49.60;;;;;;5024997;28;20627;-54
2022/01/05 09:57:16;;;;;;;2.10;1.90;;;27.80;49.60;;;;;;5023657;28;20196;-60
2022/01/05 09:59:47;;;;;;;1.70;1.60;;;27.80;49.70;;;;;;5024324;28;20325;-52
2022/01/05 10:02:19;;;;;;;1.77;1.55;;;27.80;49.70;;;;;;5023416;28;20307;-61
2022/01/05 10:04:50;;;;;;;2.00;1.90;;;27.70;50.30;;;;;;5024459;28;20276;-60
2022/01/05 10:07:21;;;;;;;1.75;1.65;;;27.70;49.70;;;;;;5024491;28;20640;-50
2022/01/05 10:09:51;;;;;;;2.10;1.90;;;27.70;49.70;;;;;;5029276;28;20732;-43
2022/01/05 10:12:24;;;;;;;2.33;1.60;;;27.70;49.70;;;;;;5030462;28;20659;-60
2022/01/05 10:14:55;;;;;;;2.15;1.70;;;27.60;49.80;;;;;;5028374;28;20286;-59
2022/01/05 10:17:28;;;;;;;1.90;1.80;;;27.60;49.80;;;;;;5028884;28;20283;-47
2022/01/05 10:20:05;;;;;;;1.77;1.65;;;27.60;49.90;;;;;;5027288;28;20648;-58
2022/01/05 10:22:37;;;;;;;2.08;1.98;;;27.50;49.90;;;;;;5026921;28;20308;-50
2022/01/05 10:25:16;;;;;;;2.42;2.00;;;27.50;49.90;;;;;;5028053;28;20283;-60
2022/01/05 10:27:58;;;;;;;1.92;1.80;;;27.50;50.00;;;;;;5026661;28;20284;-48
2022/01/05 10:30:38;;;;;;;1.77;1.63;;;27.40;49.90;;;;;;5027895;28;20200;-57
2022/01/05 10:33:08;;;;;;;2.53;1.88;;;27.40;50.00;;;;;;5027334;28;20287;-58
2022/01/05 10:35:39;;;;;;;1.85;1.75;;;27.40;50.00;;;;;;5027160;28;20200;-58
2022/01/05 10:38:13;;;;;;;1.80;1.70;;;27.40;50.00;;;;;;5028203;28;20283;-61
2022/01/05 10:40:44;;;;;;;1.88;1.63;;;27.40;50.10;;;;;;5029492;28;20203;-56
2022/01/05 10:43:16;;;;;;;1.88;1.77;;;27.40;50.10;;;;;;5027591;28;20192;-58
2022/01/05 10:45:48;;;;;;;1.90;1.80;;;27.30;50.10;;;;;;5027682;28;20291;-58
2022/01/05 10:48:20;;;;;;;2.42;2.00;;;27.40;50.20;;;;;;5027131;28;20287;-58
2022/01/05 10:51:03;;;;;;;1.98;1.75;;;27.30;50.10;;;;;;5027835;28;20283;-56
2022/01/05 10:53:34;;;;;;;1.90;1.65;;;27.30;50.20;;;;;;5026787;28;20319;-58
2022/01/05 10:56:04;;;;;;;2.30;1.80;;;27.30;50.20;;;;;;5026799;28;20296;-60
2022/01/05 10:58:47;;;;;;;1.55;1.45;;;27.30;50.20;;;;;;5026808;28;20299;-45
2022/01/05 11:01:31;;;;;;;2.28;1.88;;;27.20;50.20;;;;;;5027156;28;20303;-60
2022/01/05 11:04:16;;;;;;;2.22;2.03;;;27.20;50.20;;;;;;5026999;28;20288;-60
2022/01/05 11:07:02;;;;;;;1.63;1.52;;;27.20;50.20;;;;;;5025348;28;20893;-58
2022/01/05 11:09:33;;;;;;;1.95;1.75;;;27.10;50.10;;;;;;5025821;28;20311;-60
2022/01/05 11:12:12;;;;;;;2.00;1.80;;;27.10;50.10;;;;;;5028599;28;20251;-50
2022/01/05 11:14:44;;;;;;;2.75;1.90;;;27.10;50.20;;;;;;5028883;28;20279;-52
2022/01/05 11:17:19;;;;;;;2.10;2.00;;;27.00;50.20;;;;;;5026956;28;20292;-54
2022/01/05 11:19:50;;;;;;;2.13;1.73;;;27.00;50.20;;;;;;5026573;28;20207;-38
2022/01/05 11:22:20;;;;;;;1.92;1.55;;;27.00;50.40;;;;;;5027739;28;20323;-46
2022/01/05 11:24:52;;;;;;;1.75;1.65;;;26.90;50.30;;;;;;5026671;28;20250;-39
2022/01/05 11:27:24;;;;;;;2.05;1.80;;;26.90;50.30;;;;;;5025949;28;20283;-38
2022/01/05 11:29:57;;;;;;;1.83;1.70;;;26.90;50.30;;;;;;5027883;28;20301;-39
2022/01/05 11:32:31;;;;;;;1.85;1.70;;;26.90;50.40;;;;;;5027234;28;20227;-38
2022/01/05 11:35:01;;;;;;;2.25;1.95;;;26.90;50.30;;;;;;5026178;28;20805;-39
2022/01/05 11:37:32;;;;;;;1.77;1.45;;;26.90;50.40;;;;;;5028234;28;20203;-56
2022/01/05 11:40:04;;;;;;;2.75;1.80;;;26.90;50.30;;;;;;5027205;28;20383;-54
2022/01/05 11:42:37;;;;;;;2.75;1.77;;;26.90;50.30;;;;;;5023117;28;20624;-40
2022/01/05 11:45:11;;;;;;;2.03;1.83;;;26.80;50.30;;;;;;5026063;28;20279;-48
2022/01/05 11:47:42;;;;;;;1.70;1.60;;;26.80;51.00;;;;;;5026364;28;20218;-42
2022/01/05 11:50:29;;;;;;;2.25;2.05;;;26.80;50.40;;;;;;5025986;28;20220;-46
2022/01/05 11:53:01;;;;;;;2.08;1.98;;;26.80;50.40;;;;;;5024918;28;20303;-51
2022/01/05 11:55:34;;;;;;;2.35;2.00;;;26.80;50.50;;;;;;5027359;28;20677;-53
2022/01/05 11:58:18;;;;;;;2.42;1.90;;;26.70;50.40;;;;;;5024785;28;20212;-50
2022/01/05 12:01:11;;;;;;;1.70;1.60;;;26.70;50.40;;;;;;5025235;28;20294;-48
2022/01/05 12:04:03;;;;;;;2.65;2.05;;;26.70;50.50;;;;;;5026820;28;20439;-58
2022/01/05 12:06:34;;;;;;;2.05;1.90;;;26.60;50.50;;;;;;5025229;28;20270;-60
2022/01/05 12:09:19;;;;;;;1.80;1.70;;;26.60;50.50;;;;;;5026113;28;20770;-61
2022/01/05 12:11:50;;;;;;;1.70;1.60;;;26.60;50.60;;;;;;5026280;28;20315;-55
2022/01/05 12:14:48;;;;;;;2.10;1.88;;;26.50;50.50;;;;;;5028030;28;20287;-57
2022/01/05 12:17:21;;;;;;;2.08;1.80;;;26.50;50.50;;;;;;5026783;28;20196;-52
2022/01/05 12:20:14;;;;;;;2.00;1.65;;;26.50;50.50;;;;;;5015929;28;20197;-61
2022/01/05 12:22:45;;;;;;;2.00;1.80;;;26.50;50.60;;;;;;5012095;28;20229;-57
2022/01/05 12:25:24;;;;;;;1.73;1.63;;;26.50;50.60;;;;;;5009062;28;20232;-46
2022/01/05 12:28:03;;;;;;;1.60;1.50;;;26.40;50.60;;;;;;5009097;28;20232;-60
2022/01/05 12:30:46;;;;;;;1.60;1.50;;;26.40;50.60;;;;;;5007840;28;20312;-60
2022/01/05 12:33:20;;;;;;;1.50;1.40;;;26.40;50.60;;;;;;5008568;28;20204;-61
2022/01/05 12:35:56;;;;;;;2.10;1.90;;;26.40;50.70;;;;;;5008423;28;20223;-57
2022/01/05 12:38:47;;;;;;;1.95;1.75;;;26.40;50.70;;;;;;5010010;28;20283;-56
2022/01/05 12:41:32;;;;;;;1.70;1.60;;;26.40;50.70;;;;;;5001789;28;20728;-60
2022/01/05 12:44:08;;;;;;;1.83;1.70;;;26.30;50.60;;;;;;5003611;28;20287;-60
2022/01/05 12:46:43;;;;;;;1.50;1.40;;;26.40;50.80;;;;;;5010124;28;20279;-56
2022/01/05 12:49:17;;;;;;;1.80;1.65;;;26.30;50.70;;;;;;5008253;28;20588;-60
2022/01/05 12:52:05;;;;;;;2.08;1.88;;;26.30;50.70;;;;;;5008334;28;20303;-57
2022/01/05 12:54:43;;;;;;;1.80;1.70;;;26.30;50.80;;;;;;5008368;28;20284;-61
2022/01/05 12:57:22;;;;;;;1.60;1.50;;;26.20;50.70;;;;;;5009621;28;20690;-50
2022/01/05 12:59:54;;;;;;;1.70;1.60;;;26.20;50.80;;;;;;4992644;28;20291;-58
2022/01/05 13:02:27;;;;;;;1.80;1.70;;;26.20;50.80;;;;;;4994074;28;20608;-53
2022/01/05 13:05:06;;;;;;;1.58;1.48;;;26.20;50.80;;;;;;5008084;28;20239;-61
2022/01/05 13:07:39;;;;;;;1.83;1.52;;;26.10;50.80;;;;;;5007566;28;20211;-58
2022/01/05 13:10:13;;;;;;;1.60;1.50;;;26.10;50.70;;;;;;4996392;28;20229;-58
2022/01/05 13:12:43;;;;;;;1.58;1.48;;;26.10;50.80;;;;;;5004234;28;20271;-57
2022/01/05 13:15:15;;;;;;;1.60;1.50;;;26.10;50.80;;;;;;5007905;28;20288;-61
2022/01/05 13:17:45;;;;;;;1.92;1.70;;;26.10;50.90;;;;;;5004014;28;20202;-61
2022/01/05 13:20:18;;;;;;;1.27;1.20;;;26.10;50.90;;;;;;4999941;28;20197;-56
2022/01/05 13:22:51;;;;;;;1.60;1.50;;;26.10;50.90;;;;;;5008061;28;20228;-61